sensor_id;sensor_type;location;lat;lon;timestamp;P1;durP1;ratioP1;P2;durP2;ratioP2
12665;SDS011;58531;59.050;17.416;2023-07-08T00:00:09;113.93;;;109.17;;
12665;SDS011;58531;59.050;17.416;2023-07-08T00:02:39;84.63;;;80.93;;
12665;SDS011;58531;59.050;17.416;2023-07-08T00:05:07;78.43;;;75.07;;
12665;SDS011;58531;59.050;17.416;2023-07-08T00:07:36;65.93;;;63.00;;
12665;SDS011;58531;59.050;17.416;2023-07-08T00:10:10;59.70;;;56.90;;
12665;SDS011;58531;59.050;17.416;2023-07-08T00:12:39;60.70;;;57.67;;
12665;SDS011;58531;59.050;17.416;2023-07-08T00:15:06;52.40;;;49.90;;
12665;SDS011;58531;59.050;17.416;2023-07-08T00:17:34;60.73;;;57.60;;
12665;SDS011;58531;59.050;17.416;2023-07-08T00:20:07;49.10;;;46.67;;
12665;SDS011;58531;59.050;17.416;2023-07-08T00:22:40;43.30;;;41.07;;
12665;SDS011;58531;59.050;17.416;2023-07-08T00:25:08;36.30;;;34.10;;
12665;SDS011;58531;59.050;17.416;2023-07-08T00:27:35;40.10;;;37.90;;
12665;SDS011;58531;59.050;17.416;2023-07-08T00:30:07;40.30;;;38.00;;
12665;SDS011;58531;59.050;17.416;2023-07-08T00:32:43;46.93;;;44.40;;
12665;SDS011;58531;59.050;17.416;2023-07-08T00:35:10;79.50;;;75.90;;
12665;SDS011;58531;59.050;17.416;2023-07-08T00:37:37;67.83;;;64.57;;
12665;SDS011;58531;59.050;17.416;2023-07-08T00:40:12;105.20;;;100.53;;
12665;SDS011;58531;59.050;17.416;2023-07-08T00:42:42;107.03;;;102.17;;
12665;SDS011;58531;59.050;17.416;2023-07-08T00:45:16;108.50;;;103.87;;
12665;SDS011;58531;59.050;17.416;2023-07-08T00:47:56;83.83;;;79.73;;
12665;SDS011;58531;59.050;17.416;2023-07-08T00:50:31;104.00;;;99.07;;
12665;SDS011;58531;59.050;17.416;2023-07-08T00:55:57;77.70;;;73.90;;
12665;SDS011;58531;59.050;17.416;2023-07-08T00:58:30;65.37;;;62.03;;
12665;SDS011;58531;59.050;17.416;2023-07-08T01:01:00;54.07;;;51.30;;
12665;SDS011;58531;59.050;17.416;2023-07-08T01:03:30;43.43;;;40.97;;
12665;SDS011;58531;59.050;17.416;2023-07-08T01:06:01;42.10;;;39.80;;
12665;SDS011;58531;59.050;17.416;2023-07-08T01:08:30;36.73;;;34.27;;
12665;SDS011;58531;59.050;17.416;2023-07-08T01:11:00;36.33;;;34.13;;
12665;SDS011;58531;59.050;17.416;2023-07-08T01:13:30;33.27;;;31.10;;
12665;SDS011;58531;59.050;17.416;2023-07-08T01:16:01;23.90;;;22.27;;
12665;SDS011;58531;59.050;17.416;2023-07-08T01:18:30;24.63;;;22.63;;
12665;SDS011;58531;59.050;17.416;2023-07-08T01:21:00;26.37;;;24.50;;
12665;SDS011;58531;59.050;17.416;2023-07-08T01:23:31;26.33;;;24.17;;
12665;SDS011;58531;59.050;17.416;2023-07-08T01:25:58;24.93;;;22.90;;
12665;SDS011;58531;59.050;17.416;2023-07-08T01:28:27;28.67;;;26.77;;
12665;SDS011;58531;59.050;17.416;2023-07-08T01:30:55;22.00;;;20.27;;
12665;SDS011;58531;59.050;17.416;2023-07-08T01:33:22;19.77;;;18.20;;
12665;SDS011;58531;59.050;17.416;2023-07-08T01:35:49;16.10;;;14.77;;
12665;SDS011;58531;59.050;17.416;2023-07-08T01:38:17;13.97;;;12.27;;
12665;SDS011;58531;59.050;17.416;2023-07-08T01:40:51;13.53;;;10.37;;
12665;SDS011;58531;59.050;17.416;2023-07-08T01:43:19;15.50;;;9.27;;
12665;SDS011;58531;59.050;17.416;2023-07-08T01:45:49;10.57;;;8.90;;
12665;SDS011;58531;59.050;17.416;2023-07-08T01:48:19;11.83;;;10.20;;
12665;SDS011;58531;59.050;17.416;2023-07-08T01:50:51;16.10;;;9.60;;
12665;SDS011;58531;59.050;17.416;2023-07-08T01:53:27;9.63;;;8.63;;
12665;SDS011;58531;59.050;17.416;2023-07-08T01:55:57;15.93;;;9.97;;
12665;SDS011;58531;59.050;17.416;2023-07-08T01:58:25;15.27;;;9.83;;
12665;SDS011;58531;59.050;17.416;2023-07-08T02:00:53;11.63;;;10.23;;
12665;SDS011;58531;59.050;17.416;2023-07-08T02:03:20;11.43;;;8.53;;
12665;SDS011;58531;59.050;17.416;2023-07-08T02:05:48;12.07;;;9.93;;
12665;SDS011;58531;59.050;17.416;2023-07-08T02:08:15;12.80;;;11.17;;
12665;SDS011;58531;59.050;17.416;2023-07-08T02:10:43;14.20;;;10.63;;
12665;SDS011;58531;59.050;17.416;2023-07-08T02:13:15;12.97;;;10.20;;
12665;SDS011;58531;59.050;17.416;2023-07-08T02:15:42;14.83;;;11.60;;
12665;SDS011;58531;59.050;17.416;2023-07-08T02:18:09;18.57;;;16.70;;
12665;SDS011;58531;59.050;17.416;2023-07-08T02:20:36;22.87;;;21.00;;
12665;SDS011;58531;59.050;17.416;2023-07-08T02:23:03;27.03;;;25.30;;
12665;SDS011;58531;59.050;17.416;2023-07-08T02:25:30;22.77;;;20.87;;
12665;SDS011;58531;59.050;17.416;2023-07-08T02:27:56;25.43;;;23.27;;
12665;SDS011;58531;59.050;17.416;2023-07-08T02:30:25;23.03;;;21.10;;
12665;SDS011;58531;59.050;17.416;2023-07-08T02:32:53;24.17;;;22.00;;
12665;SDS011;58531;59.050;17.416;2023-07-08T02:35:25;22.83;;;21.03;;
12665;SDS011;58531;59.050;17.416;2023-07-08T02:37:54;32.83;;;30.47;;
12665;SDS011;58531;59.050;17.416;2023-07-08T02:40:23;45.43;;;42.63;;
12665;SDS011;58531;59.050;17.416;2023-07-08T02:42:50;39.93;;;37.37;;
12665;SDS011;58531;59.050;17.416;2023-07-08T02:45:17;42.00;;;39.43;;
12665;SDS011;58531;59.050;17.416;2023-07-08T02:47:46;63.90;;;60.07;;
12665;SDS011;58531;59.050;17.416;2023-07-08T02:50:13;96.27;;;91.30;;
12665;SDS011;58531;59.050;17.416;2023-07-08T02:52:42;81.03;;;76.87;;
12665;SDS011;58531;59.050;17.416;2023-07-08T02:55:09;63.53;;;60.47;;
12665;SDS011;58531;59.050;17.416;2023-07-08T02:57:35;77.10;;;73.10;;
12665;SDS011;58531;59.050;17.416;2023-07-08T03:00:03;145.63;;;139.47;;
12665;SDS011;58531;59.050;17.416;2023-07-08T03:02:31;32.17;;;30.03;;
12665;SDS011;58531;59.050;17.416;2023-07-08T03:05:00;23.93;;;21.93;;
12665;SDS011;58531;59.050;17.416;2023-07-08T03:07:26;21.43;;;20.00;;
12665;SDS011;58531;59.050;17.416;2023-07-08T03:09:54;16.93;;;15.53;;
12665;SDS011;58531;59.050;17.416;2023-07-08T03:12:20;18.40;;;16.57;;
12665;SDS011;58531;59.050;17.416;2023-07-08T03:14:47;9.60;;;9.00;;
12665;SDS011;58531;59.050;17.416;2023-07-08T03:17:14;6.93;;;6.43;;
12665;SDS011;58531;59.050;17.416;2023-07-08T03:19:41;6.00;;;5.70;;
12665;SDS011;58531;59.050;17.416;2023-07-08T03:22:09;6.97;;;6.63;;
12665;SDS011;58531;59.050;17.416;2023-07-08T03:24:36;4.87;;;4.40;;
12665;SDS011;58531;59.050;17.416;2023-07-08T03:27:11;4.23;;;3.93;;
12665;SDS011;58531;59.050;17.416;2023-07-08T03:29:38;3.23;;;3.03;;
12665;SDS011;58531;59.050;17.416;2023-07-08T03:32:06;3.43;;;3.00;;
12665;SDS011;58531;59.050;17.416;2023-07-08T03:34:36;2.20;;;2.00;;
12665;SDS011;58531;59.050;17.416;2023-07-08T03:37:03;2.70;;;2.50;;
12665;SDS011;58531;59.050;17.416;2023-07-08T03:39:32;2.70;;;2.20;;
12665;SDS011;58531;59.050;17.416;2023-07-08T03:41:58;2.83;;;2.63;;
12665;SDS011;58531;59.050;17.416;2023-07-08T03:44:26;2.30;;;2.10;;
12665;SDS011;58531;59.050;17.416;2023-07-08T03:46:52;4.10;;;3.80;;
12665;SDS011;58531;59.050;17.416;2023-07-08T03:49:20;3.10;;;2.90;;
12665;SDS011;58531;59.050;17.416;2023-07-08T03:51:49;3.20;;;2.93;;
12665;SDS011;58531;59.050;17.416;2023-07-08T03:54:19;5.57;;;5.07;;
12665;SDS011;58531;59.050;17.416;2023-07-08T03:56:48;4.20;;;3.80;;
12665;SDS011;58531;59.050;17.416;2023-07-08T03:59:15;5.30;;;4.90;;
12665;SDS011;58531;59.050;17.416;2023-07-08T04:01:42;3.60;;;3.33;;
12665;SDS011;58531;59.050;17.416;2023-07-08T04:04:09;3.50;;;2.40;;
12665;SDS011;58531;59.050;17.416;2023-07-08T04:06:39;2.30;;;2.10;;
12665;SDS011;58531;59.050;17.416;2023-07-08T04:09:06;3.13;;;2.93;;
12665;SDS011;58531;59.050;17.416;2023-07-08T04:11:33;3.33;;;3.13;;
12665;SDS011;58531;59.050;17.416;2023-07-08T04:14:02;4.07;;;3.87;;
12665;SDS011;58531;59.050;17.416;2023-07-08T04:16:30;4.37;;;4.07;;
12665;SDS011;58531;59.050;17.416;2023-07-08T04:19:11;4.07;;;3.70;;
12665;SDS011;58531;59.050;17.416;2023-07-08T04:21:39;2.97;;;2.77;;
12665;SDS011;58531;59.050;17.416;2023-07-08T04:24:08;3.50;;;2.93;;
12665;SDS011;58531;59.050;17.416;2023-07-08T04:26:35;3.23;;;2.90;;
12665;SDS011;58531;59.050;17.416;2023-07-08T04:29:06;3.70;;;3.50;;
12665;SDS011;58531;59.050;17.416;2023-07-08T04:31:36;4.83;;;4.50;;
12665;SDS011;58531;59.050;17.416;2023-07-08T04:34:03;3.53;;;3.30;;
12665;SDS011;58531;59.050;17.416;2023-07-08T04:36:31;3.93;;;3.20;;
12665;SDS011;58531;59.050;17.416;2023-07-08T04:38:58;3.00;;;2.80;;
12665;SDS011;58531;59.050;17.416;2023-07-08T04:41:25;3.40;;;3.10;;
12665;SDS011;58531;59.050;17.416;2023-07-08T04:43:52;3.00;;;2.77;;
12665;SDS011;58531;59.050;17.416;2023-07-08T04:46:25;2.97;;;2.70;;
12665;SDS011;58531;59.050;17.416;2023-07-08T04:49:00;3.10;;;2.90;;
12665;SDS011;58531;59.050;17.416;2023-07-08T04:51:28;3.47;;;3.27;;
12665;SDS011;58531;59.050;17.416;2023-07-08T04:53:56;3.30;;;3.00;;
12665;SDS011;58531;59.050;17.416;2023-07-08T04:56:24;3.10;;;2.90;;
12665;SDS011;58531;59.050;17.416;2023-07-08T04:58:52;3.70;;;3.50;;
12665;SDS011;58531;59.050;17.416;2023-07-08T05:01:19;3.20;;;3.00;;
12665;SDS011;58531;59.050;17.416;2023-07-08T05:03:47;3.47;;;3.27;;
12665;SDS011;58531;59.050;17.416;2023-07-08T05:06:14;4.70;;;4.40;;
12665;SDS011;58531;59.050;17.416;2023-07-08T05:08:41;3.90;;;3.60;;
12665;SDS011;58531;59.050;17.416;2023-07-08T05:11:07;4.77;;;4.47;;
12665;SDS011;58531;59.050;17.416;2023-07-08T05:13:34;4.60;;;4.30;;
12665;SDS011;58531;59.050;17.416;2023-07-08T05:16:01;4.33;;;4.03;;
12665;SDS011;58531;59.050;17.416;2023-07-08T05:18:28;5.13;;;4.70;;
12665;SDS011;58531;59.050;17.416;2023-07-08T05:20:57;3.33;;;3.13;;
12665;SDS011;58531;59.050;17.416;2023-07-08T05:23:24;3.00;;;2.90;;
12665;SDS011;58531;59.050;17.416;2023-07-08T05:25:51;3.37;;;3.10;;
12665;SDS011;58531;59.050;17.416;2023-07-08T05:28:19;3.23;;;3.03;;
12665;SDS011;58531;59.050;17.416;2023-07-08T05:30:51;3.27;;;3.07;;
12665;SDS011;58531;59.050;17.416;2023-07-08T05:33:20;3.37;;;3.17;;
12665;SDS011;58531;59.050;17.416;2023-07-08T05:35:47;3.73;;;3.53;;
12665;SDS011;58531;59.050;17.416;2023-07-08T05:38:15;3.20;;;3.00;;
12665;SDS011;58531;59.050;17.416;2023-07-08T05:40:43;3.10;;;2.90;;
12665;SDS011;58531;59.050;17.416;2023-07-08T05:43:14;3.20;;;3.00;;
12665;SDS011;58531;59.050;17.416;2023-07-08T05:45:41;3.33;;;3.03;;
12665;SDS011;58531;59.050;17.416;2023-07-08T05:48:08;4.23;;;4.00;;
12665;SDS011;58531;59.050;17.416;2023-07-08T05:50:35;3.90;;;3.60;;
12665;SDS011;58531;59.050;17.416;2023-07-08T05:53:02;3.40;;;3.20;;
12665;SDS011;58531;59.050;17.416;2023-07-08T05:55:31;3.60;;;3.30;;
12665;SDS011;58531;59.050;17.416;2023-07-08T05:57:58;5.83;;;3.13;;
12665;SDS011;58531;59.050;17.416;2023-07-08T06:00:25;4.00;;;3.80;;
12665;SDS011;58531;59.050;17.416;2023-07-08T06:02:52;4.75;;;4.35;;
12665;SDS011;58531;59.050;17.416;2023-07-08T06:05:18;8.15;;;7.75;;
12665;SDS011;58531;59.050;17.416;2023-07-08T06:07:45;7.53;;;7.22;;
12665;SDS011;58531;59.050;17.416;2023-07-08T06:10:12;8.05;;;7.57;;
12665;SDS011;58531;59.050;17.416;2023-07-08T06:12:40;6.15;;;5.75;;
12665;SDS011;58531;59.050;17.416;2023-07-08T06:15:08;6.95;;;6.47;;
12665;SDS011;58531;59.050;17.416;2023-07-08T06:17:37;7.00;;;6.60;;
12665;SDS011;58531;59.050;17.416;2023-07-08T06:20:04;8.15;;;7.68;;
12665;SDS011;58531;59.050;17.416;2023-07-08T06:22:32;7.82;;;7.47;;
12665;SDS011;58531;59.050;17.416;2023-07-08T06:25:00;7.63;;;7.22;;
12665;SDS011;58531;59.050;17.416;2023-07-08T06:27:27;6.93;;;6.63;;
12665;SDS011;58531;59.050;17.416;2023-07-08T06:29:56;6.18;;;5.82;;
12665;SDS011;58531;59.050;17.416;2023-07-08T06:32:23;4.28;;;3.88;;
12665;SDS011;58531;59.050;17.416;2023-07-08T06:34:50;4.50;;;4.18;;
12665;SDS011;58531;59.050;17.416;2023-07-08T06:37:17;4.40;;;3.97;;
12665;SDS011;58531;59.050;17.416;2023-07-08T06:39:44;4.05;;;3.72;;
12665;SDS011;58531;59.050;17.416;2023-07-08T06:42:11;4.22;;;3.88;;
12665;SDS011;58531;59.050;17.416;2023-07-08T06:44:38;7.72;;;7.00;;
12665;SDS011;58531;59.050;17.416;2023-07-08T06:47:11;6.93;;;6.55;;
12665;SDS011;58531;59.050;17.416;2023-07-08T06:49:38;3.70;;;3.50;;
12665;SDS011;58531;59.050;17.416;2023-07-08T06:52:05;4.35;;;4.05;;
12665;SDS011;58531;59.050;17.416;2023-07-08T06:54:33;3.90;;;3.65;;
12665;SDS011;58531;59.050;17.416;2023-07-08T06:57:00;5.78;;;3.75;;
12665;SDS011;58531;59.050;17.416;2023-07-08T06:59:27;3.80;;;3.60;;
12665;SDS011;58531;59.050;17.416;2023-07-08T07:01:54;5.78;;;3.92;;
12665;SDS011;58531;59.050;17.416;2023-07-08T07:04:22;4.55;;;4.15;;
12665;SDS011;58531;59.050;17.416;2023-07-08T07:06:49;4.63;;;4.32;;
12665;SDS011;58531;59.050;17.416;2023-07-08T07:09:16;4.50;;;4.15;;
12665;SDS011;58531;59.050;17.416;2023-07-08T07:11:43;8.55;;;7.95;;
12665;SDS011;58531;59.050;17.416;2023-07-08T07:14:11;6.32;;;6.03;;
12665;SDS011;58531;59.050;17.416;2023-07-08T07:16:38;7.10;;;6.60;;
12665;SDS011;58531;59.050;17.416;2023-07-08T07:19:07;5.07;;;4.78;;
12665;SDS011;58531;59.050;17.416;2023-07-08T07:21:37;7.45;;;7.05;;
12665;SDS011;58531;59.050;17.416;2023-07-08T07:24:05;7.35;;;7.05;;
12665;SDS011;58531;59.050;17.416;2023-07-08T07:26:34;7.10;;;6.70;;
12665;SDS011;58531;59.050;17.416;2023-07-08T07:29:02;5.60;;;5.18;;
12665;SDS011;58531;59.050;17.416;2023-07-08T07:31:29;7.00;;;6.60;;
12665;SDS011;58531;59.050;17.416;2023-07-08T07:33:59;6.13;;;5.82;;
12665;SDS011;58531;59.050;17.416;2023-07-08T07:36:27;7.72;;;7.32;;
12665;SDS011;58531;59.050;17.416;2023-07-08T07:38:57;4.00;;;3.80;;
12665;SDS011;58531;59.050;17.416;2023-07-08T07:41:25;3.67;;;3.47;;
12665;SDS011;58531;59.050;17.416;2023-07-08T07:43:53;3.97;;;3.67;;
12665;SDS011;58531;59.050;17.416;2023-07-08T07:46:21;4.23;;;3.93;;
12665;SDS011;58531;59.050;17.416;2023-07-08T07:48:48;4.23;;;3.93;;
12665;SDS011;58531;59.050;17.416;2023-07-08T07:51:16;4.73;;;3.50;;
12665;SDS011;58531;59.050;17.416;2023-07-08T07:53:43;4.23;;;4.03;;
12665;SDS011;58531;59.050;17.416;2023-07-08T07:56:12;4.33;;;4.03;;
12665;SDS011;58531;59.050;17.416;2023-07-08T07:58:40;4.20;;;3.90;;
12665;SDS011;58531;59.050;17.416;2023-07-08T08:01:07;3.83;;;3.60;;
12665;SDS011;58531;59.050;17.416;2023-07-08T08:03:35;4.23;;;3.93;;
12665;SDS011;58531;59.050;17.416;2023-07-08T08:06:02;3.97;;;3.65;;
12665;SDS011;58531;59.050;17.416;2023-07-08T08:08:29;4.05;;;3.50;;
12665;SDS011;58531;59.050;17.416;2023-07-08T08:11:01;3.78;;;3.58;;
12665;SDS011;58531;59.050;17.416;2023-07-08T08:13:30;3.83;;;3.47;;
12665;SDS011;58531;59.050;17.416;2023-07-08T08:15:58;4.87;;;4.57;;
12665;SDS011;58531;59.050;17.416;2023-07-08T08:18:26;6.07;;;4.00;;
12665;SDS011;58531;59.050;17.416;2023-07-08T08:20:54;5.17;;;4.83;;
12665;SDS011;58531;59.050;17.416;2023-07-08T08:23:21;6.60;;;6.30;;
12665;SDS011;58531;59.050;17.416;2023-07-08T08:25:49;6.30;;;5.90;;
12665;SDS011;58531;59.050;17.416;2023-07-08T08:28:17;5.83;;;5.40;;
12665;SDS011;58531;59.050;17.416;2023-07-08T08:30:47;7.10;;;5.57;;
12665;SDS011;58531;59.050;17.416;2023-07-08T08:33:15;5.67;;;5.37;;
12665;SDS011;58531;59.050;17.416;2023-07-08T08:35:44;4.97;;;4.60;;
12665;SDS011;58531;59.050;17.416;2023-07-08T08:38:11;5.53;;;4.30;;
12665;SDS011;58531;59.050;17.416;2023-07-08T08:40:39;4.80;;;4.40;;
12665;SDS011;58531;59.050;17.416;2023-07-08T08:43:10;5.63;;;5.23;;
12665;SDS011;58531;59.050;17.416;2023-07-08T08:45:41;4.17;;;3.87;;
12665;SDS011;58531;59.050;17.416;2023-07-08T08:48:17;4.57;;;4.33;;
12665;SDS011;58531;59.050;17.416;2023-07-08T08:50:49;4.97;;;4.57;;
12665;SDS011;58531;59.050;17.416;2023-07-08T08:53:20;4.33;;;4.03;;
12665;SDS011;58531;59.050;17.416;2023-07-08T08:55:51;5.43;;;4.93;;
12665;SDS011;58531;59.050;17.416;2023-07-08T08:58:26;4.07;;;3.87;;
12665;SDS011;58531;59.050;17.416;2023-07-08T09:01:02;13.13;;;6.20;;
12665;SDS011;58531;59.050;17.416;2023-07-08T09:03:36;4.83;;;4.40;;
12665;SDS011;58531;59.050;17.416;2023-07-08T09:06:13;6.27;;;5.87;;
12665;SDS011;58531;59.050;17.416;2023-07-08T09:08:43;5.57;;;5.10;;
12665;SDS011;58531;59.050;17.416;2023-07-08T09:11:19;5.43;;;5.13;;
12665;SDS011;58531;59.050;17.416;2023-07-08T09:13:53;5.20;;;4.80;;
12665;SDS011;58531;59.050;17.416;2023-07-08T09:16:25;4.70;;;4.40;;
12665;SDS011;58531;59.050;17.416;2023-07-08T09:19:06;5.17;;;4.97;;
12665;SDS011;58531;59.050;17.416;2023-07-08T09:21:40;4.70;;;4.40;;
12665;SDS011;58531;59.050;17.416;2023-07-08T09:24:17;4.63;;;4.23;;
12665;SDS011;58531;59.050;17.416;2023-07-08T09:26:52;5.33;;;4.93;;
12665;SDS011;58531;59.050;17.416;2023-07-08T09:29:24;5.43;;;5.03;;
12665;SDS011;58531;59.050;17.416;2023-07-08T09:31:58;4.60;;;4.40;;
12665;SDS011;58531;59.050;17.416;2023-07-08T09:34:37;5.63;;;5.13;;
12665;SDS011;58531;59.050;17.416;2023-07-08T09:37:23;5.00;;;4.67;;
12665;SDS011;58531;59.050;17.416;2023-07-08T09:39:53;4.47;;;4.17;;
12665;SDS011;58531;59.050;17.416;2023-07-08T09:42:23;4.53;;;4.23;;
12665;SDS011;58531;59.050;17.416;2023-07-08T09:44:55;5.13;;;4.83;;
12665;SDS011;58531;59.050;17.416;2023-07-08T09:47:33;4.93;;;4.57;;
12665;SDS011;58531;59.050;17.416;2023-07-08T09:50:06;5.37;;;4.97;;
12665;SDS011;58531;59.050;17.416;2023-07-08T09:52:44;5.63;;;5.27;;
12665;SDS011;58531;59.050;17.416;2023-07-08T09:55:12;5.57;;;5.27;;
12665;SDS011;58531;59.050;17.416;2023-07-08T09:57:42;5.30;;;4.90;;
12665;SDS011;58531;59.050;17.416;2023-07-08T10:00:11;5.07;;;4.37;;
12665;SDS011;58531;59.050;17.416;2023-07-08T10:02:42;4.97;;;4.67;;
12665;SDS011;58531;59.050;17.416;2023-07-08T10:05:25;4.97;;;4.40;;
12665;SDS011;58531;59.050;17.416;2023-07-08T10:07:57;4.57;;;4.23;;
12665;SDS011;58531;59.050;17.416;2023-07-08T10:10:26;4.13;;;3.83;;
12665;SDS011;58531;59.050;17.416;2023-07-08T10:12:57;4.80;;;4.50;;
12665;SDS011;58531;59.050;17.416;2023-07-08T10:15:27;4.63;;;4.33;;
12665;SDS011;58531;59.050;17.416;2023-07-08T10:17:59;4.30;;;4.07;;
12665;SDS011;58531;59.050;17.416;2023-07-08T10:20:46;4.83;;;4.53;;
12665;SDS011;58531;59.050;17.416;2023-07-08T10:23:25;5.10;;;4.70;;
12665;SDS011;58531;59.050;17.416;2023-07-08T10:26:03;4.43;;;4.13;;
12665;SDS011;58531;59.050;17.416;2023-07-08T10:28:39;4.50;;;4.07;;
12665;SDS011;58531;59.050;17.416;2023-07-08T10:31:16;4.03;;;3.83;;
12665;SDS011;58531;59.050;17.416;2023-07-08T10:33:57;4.60;;;4.30;;
12665;SDS011;58531;59.050;17.416;2023-07-08T10:36:42;4.13;;;3.83;;
12665;SDS011;58531;59.050;17.416;2023-07-08T10:39:26;4.70;;;4.30;;
12665;SDS011;58531;59.050;17.416;2023-07-08T10:42:12;5.23;;;4.93;;
12665;SDS011;58531;59.050;17.416;2023-07-08T10:44:52;4.57;;;4.27;;
12665;SDS011;58531;59.050;17.416;2023-07-08T10:47:33;4.47;;;4.07;;
12665;SDS011;58531;59.050;17.416;2023-07-08T10:50:18;4.10;;;3.67;;
12665;SDS011;58531;59.050;17.416;2023-07-08T10:52:59;4.03;;;3.63;;
12665;SDS011;58531;59.050;17.416;2023-07-08T10:55:38;3.80;;;3.33;;
12665;SDS011;58531;59.050;17.416;2023-07-08T10:58:18;4.37;;;4.00;;
12665;SDS011;58531;59.050;17.416;2023-07-08T11:00:57;4.10;;;3.80;;
12665;SDS011;58531;59.050;17.416;2023-07-08T11:03:47;4.43;;;4.13;;
12665;SDS011;58531;59.050;17.416;2023-07-08T11:06:37;4.33;;;4.03;;
12665;SDS011;58531;59.050;17.416;2023-07-08T11:09:15;4.43;;;4.00;;
12665;SDS011;58531;59.050;17.416;2023-07-08T11:11:48;4.50;;;4.20;;
12665;SDS011;58531;59.050;17.416;2023-07-08T11:14:20;4.27;;;3.97;;
12665;SDS011;58531;59.050;17.416;2023-07-08T11:16:55;4.23;;;3.93;;
12665;SDS011;58531;59.050;17.416;2023-07-08T11:19:32;3.90;;;3.70;;
12665;SDS011;58531;59.050;17.416;2023-07-08T11:22:05;3.73;;;3.43;;
12665;SDS011;58531;59.050;17.416;2023-07-08T11:24:39;3.40;;;3.20;;
12665;SDS011;58531;59.050;17.416;2023-07-08T11:27:12;4.13;;;3.83;;
12665;SDS011;58531;59.050;17.416;2023-07-08T11:29:49;3.70;;;3.50;;
12665;SDS011;58531;59.050;17.416;2023-07-08T11:32:19;3.57;;;3.37;;
12665;SDS011;58531;59.050;17.416;2023-07-08T11:34:49;3.33;;;3.13;;
12665;SDS011;58531;59.050;17.416;2023-07-08T11:37:18;3.70;;;3.50;;
12665;SDS011;58531;59.050;17.416;2023-07-08T11:39:54;3.60;;;3.30;;
12665;SDS011;58531;59.050;17.416;2023-07-08T11:42:29;3.87;;;3.57;;
12665;SDS011;58531;59.050;17.416;2023-07-08T11:45:02;3.83;;;3.60;;
12665;SDS011;58531;59.050;17.416;2023-07-08T11:47:37;3.97;;;3.67;;
12665;SDS011;58531;59.050;17.416;2023-07-08T11:50:12;4.07;;;3.87;;
12665;SDS011;58531;59.050;17.416;2023-07-08T11:52:53;4.27;;;3.97;;
12665;SDS011;58531;59.050;17.416;2023-07-08T11:55:23;4.37;;;4.07;;
12665;SDS011;58531;59.050;17.416;2023-07-08T11:57:54;4.37;;;4.07;;
12665;SDS011;58531;59.050;17.416;2023-07-08T12:00:23;4.87;;;4.47;;
12665;SDS011;58531;59.050;17.416;2023-07-08T12:02:55;4.67;;;4.37;;
12665;SDS011;58531;59.050;17.416;2023-07-08T12:05:34;5.47;;;4.97;;
12665;SDS011;58531;59.050;17.416;2023-07-08T12:08:11;4.80;;;4.50;;
12665;SDS011;58531;59.050;17.416;2023-07-08T12:10:41;4.60;;;4.23;;
12665;SDS011;58531;59.050;17.416;2023-07-08T12:13:14;5.00;;;4.70;;
12665;SDS011;58531;59.050;17.416;2023-07-08T12:15:44;6.30;;;5.90;;
12665;SDS011;58531;59.050;17.416;2023-07-08T12:18:13;7.07;;;6.77;;
12665;SDS011;58531;59.050;17.416;2023-07-08T12:20:43;8.17;;;7.67;;
12665;SDS011;58531;59.050;17.416;2023-07-08T12:23:14;7.07;;;6.57;;
12665;SDS011;58531;59.050;17.416;2023-07-08T12:25:46;5.23;;;4.93;;
12665;SDS011;58531;59.050;17.416;2023-07-08T12:28:14;4.60;;;4.30;;
12665;SDS011;58531;59.050;17.416;2023-07-08T12:30:43;4.73;;;4.43;;
12665;SDS011;58531;59.050;17.416;2023-07-08T12:33:12;3.80;;;3.50;;
12665;SDS011;58531;59.050;17.416;2023-07-08T12:35:42;4.10;;;3.80;;
12665;SDS011;58531;59.050;17.416;2023-07-08T12:38:13;4.67;;;4.30;;
12665;SDS011;58531;59.050;17.416;2023-07-08T12:40:52;3.67;;;3.40;;
12665;SDS011;58531;59.050;17.416;2023-07-08T12:43:19;4.20;;;3.90;;
12665;SDS011;58531;59.050;17.416;2023-07-08T12:45:47;3.87;;;3.57;;
12665;SDS011;58531;59.050;17.416;2023-07-08T12:48:15;3.40;;;3.20;;
12665;SDS011;58531;59.050;17.416;2023-07-08T12:50:42;3.33;;;3.13;;
12665;SDS011;58531;59.050;17.416;2023-07-08T12:53:10;4.50;;;3.53;;
12665;SDS011;58531;59.050;17.416;2023-07-08T12:55:38;3.50;;;3.30;;
12665;SDS011;58531;59.050;17.416;2023-07-08T12:58:11;3.70;;;3.50;;
12665;SDS011;58531;59.050;17.416;2023-07-08T13:00:40;3.40;;;3.20;;
12665;SDS011;58531;59.050;17.416;2023-07-08T13:03:13;2.90;;;2.70;;
12665;SDS011;58531;59.050;17.416;2023-07-08T13:05:42;3.27;;;3.00;;
12665;SDS011;58531;59.050;17.416;2023-07-08T13:08:10;3.53;;;3.23;;
12665;SDS011;58531;59.050;17.416;2023-07-08T13:10:39;3.93;;;3.63;;
12665;SDS011;58531;59.050;17.416;2023-07-08T13:13:08;4.77;;;3.57;;
12665;SDS011;58531;59.050;17.416;2023-07-08T13:15:43;4.43;;;4.13;;
12665;SDS011;58531;59.050;17.416;2023-07-08T13:18:15;5.43;;;5.13;;
12665;SDS011;58531;59.050;17.416;2023-07-08T13:20:45;5.10;;;4.70;;
12665;SDS011;58531;59.050;17.416;2023-07-08T13:23:15;6.43;;;5.93;;
12665;SDS011;58531;59.050;17.416;2023-07-08T13:25:46;7.90;;;7.40;;
12665;SDS011;58531;59.050;17.416;2023-07-08T13:28:18;8.77;;;8.17;;
12665;SDS011;58531;59.050;17.416;2023-07-08T13:30:49;9.37;;;8.87;;
12665;SDS011;58531;59.050;17.416;2023-07-08T13:33:18;6.37;;;5.93;;
12665;SDS011;58531;59.050;17.416;2023-07-08T13:35:48;5.77;;;5.37;;
12665;SDS011;58531;59.050;17.416;2023-07-08T13:38:19;7.63;;;7.00;;
12665;SDS011;58531;59.050;17.416;2023-07-08T13:40:49;9.53;;;8.93;;
12665;SDS011;58531;59.050;17.416;2023-07-08T13:43:24;18.70;;;17.87;;
12665;SDS011;58531;59.050;17.416;2023-07-08T13:45:54;11.43;;;10.83;;
12665;SDS011;58531;59.050;17.416;2023-07-08T13:48:23;9.47;;;8.83;;
12665;SDS011;58531;59.050;17.416;2023-07-08T13:50:55;9.20;;;8.70;;
12665;SDS011;58531;59.050;17.416;2023-07-08T13:53:26;8.67;;;8.27;;
12665;SDS011;58531;59.050;17.416;2023-07-08T13:56:00;10.10;;;9.50;;
12665;SDS011;58531;59.050;17.416;2023-07-08T13:58:32;9.80;;;9.30;;
12665;SDS011;58531;59.050;17.416;2023-07-08T14:00:59;8.23;;;7.73;;
12665;SDS011;58531;59.050;17.416;2023-07-08T14:03:27;8.63;;;7.97;;
12665;SDS011;58531;59.050;17.416;2023-07-08T14:05:56;8.27;;;7.57;;
12665;SDS011;58531;59.050;17.416;2023-07-08T14:08:24;7.23;;;6.83;;
12665;SDS011;58531;59.050;17.416;2023-07-08T14:10:52;6.40;;;6.00;;
12665;SDS011;58531;59.050;17.416;2023-07-08T14:13:20;7.83;;;7.33;;
12665;SDS011;58531;59.050;17.416;2023-07-08T14:15:49;8.17;;;7.67;;
12665;SDS011;58531;59.050;17.416;2023-07-08T14:18:16;8.17;;;7.57;;
12665;SDS011;58531;59.050;17.416;2023-07-08T14:20:44;7.13;;;6.73;;
12665;SDS011;58531;59.050;17.416;2023-07-08T14:23:11;6.63;;;6.23;;
12665;SDS011;58531;59.050;17.416;2023-07-08T14:25:38;6.03;;;5.70;;
12665;SDS011;58531;59.050;17.416;2023-07-08T14:28:06;6.13;;;5.83;;
12665;SDS011;58531;59.050;17.416;2023-07-08T14:30:33;6.30;;;6.00;;
12665;SDS011;58531;59.050;17.416;2023-07-08T14:33:08;5.83;;;5.33;;
12665;SDS011;58531;59.050;17.416;2023-07-08T14:35:37;5.60;;;5.27;;
12665;SDS011;58531;59.050;17.416;2023-07-08T14:38:05;6.63;;;6.10;;
12665;SDS011;58531;59.050;17.416;2023-07-08T14:40:37;5.07;;;4.77;;
12665;SDS011;58531;59.050;17.416;2023-07-08T14:43:07;5.37;;;5.07;;
12665;SDS011;58531;59.050;17.416;2023-07-08T14:45:40;6.60;;;6.20;;
12665;SDS011;58531;59.050;17.416;2023-07-08T14:48:13;5.03;;;4.63;;